Time;durP1;ratioP1;P1;durP2;ratioP2;P2;SDS_P1;SDS_P2;PMS_P1;PMS_P2;Temp;Humidity;BMP_temperature;BMP_pressure;BME280_temperature;BME280_humidity;BME280_pressure;Samples;Min_cycle;Max_cycle;Signal;HPM_P1;HPM_P2
2023/10/12 00:01:26;;;;;;;7.45;2.20;;;13.70;99.90;;;;;;4952907;28;20054;-85
2023/10/12 00:03:57;;;;;;;7.05;2.15;;;13.60;99.90;;;;;;4953293;28;20051;-85
2023/10/12 00:06:26;;;;;;;6.20;2.00;;;13.60;99.90;;;;;;4958374;28;20049;-85
2023/10/12 00:08:52;;;;;;;6.22;2.00;;;13.50;99.90;;;;;;4958640;28;20101;-88
2023/10/12 00:11:20;;;;;;;6.10;2.28;;;13.60;99.90;;;;;;4954906;28;20679;-84
2023/10/12 00:13:51;;;;;;;6.10;2.30;;;13.60;99.90;;;;;;4962337;28;20129;-87
2023/10/12 00:16:18;;;;;;;10.90;2.33;;;13.50;99.90;;;;;;4953272;28;20109;-84
2023/10/12 00:18:45;;;;;;;10.18;2.08;;;13.60;99.90;;;;;;4954528;28;20454;-86
2023/10/12 00:21:15;;;;;;;7.97;2.28;;;13.50;99.90;;;;;;4974506;28;20109;-86
2023/10/12 00:23:44;;;;;;;6.18;1.85;;;13.60;99.90;;;;;;4957699;28;20043;-86
2023/10/12 00:26:09;;;;;;;8.52;2.20;;;13.70;99.90;;;;;;4957714;28;20402;-87
2023/10/12 00:28:38;;;;;;;9.20;2.28;;;13.70;99.90;;;;;;4957816;28;20105;-87
2023/10/12 00:31:16;;;;;;;9.90;2.05;;;13.70;99.90;;;;;;4957429;28;20569;-88
2023/10/12 00:33:42;;;;;;;8.13;2.00;;;13.80;99.90;;;;;;4973801;28;20061;-88
2023/10/12 00:36:21;;;;;;;8.73;2.08;;;13.80;99.90;;;;;;4958574;28;20030;-89
2023/10/12 00:38:52;;;;;;;8.43;2.00;;;13.80;99.90;;;;;;4958430;28;20535;-88
2023/10/12 00:41:18;;;;;;;7.72;2.22;;;13.80;99.90;;;;;;4974644;28;20049;-89
2023/10/12 00:49:16;;;;;;;;;;;13.80;99.90;;;;;;4974472;28;20058;-88
2023/10/12 00:51:55;;;;;;;8.30;1.90;;;13.80;99.90;;;;;;4950624;28;19929;-87
2023/10/12 00:54:27;;;;;;;7.82;2.28;;;13.90;99.90;;;;;;4949723;29;20106;-89
2023/10/12 00:57:01;;;;;;;7.47;2.70;;;13.80;99.90;;;;;;4968015;28;20185;-89
2023/10/12 00:59:31;;;;;;;5.65;2.20;;;13.80;99.90;;;;;;4958722;28;20066;-89
2023/10/12 01:02:09;;;;;;;9.18;2.05;;;13.80;99.90;;;;;;4958160;28;20057;-89
2023/10/12 01:04:36;;;;;;;7.45;1.92;;;13.80;99.90;;;;;;4973081;28;20043;-89
2023/10/12 01:07:06;;;;;;;6.07;2.03;;;13.80;99.90;;;;;;4957084;28;20042;-89
2023/10/12 01:09:39;;;;;;;7.80;2.45;;;13.90;99.90;;;;;;4973056;28;20038;-88
2023/10/12 01:12:14;;;;;;;7.88;2.10;;;13.80;99.90;;;;;;4942782;28;20043;-87
2023/10/12 01:14:48;;;;;;;7.07;2.15;;;13.80;99.90;;;;;;4966604;28;20043;-86
2023/10/12 01:17:25;;;;;;;8.18;2.30;;;13.80;99.90;;;;;;4964992;28;20046;-87
2023/10/12 01:19:51;;;;;;;7.93;2.25;;;13.80;99.90;;;;;;4961885;28;20035;-88
2023/10/12 01:22:25;;;;;;;6.88;2.03;;;13.80;99.90;;;;;;4928794;28;20046;-86
2023/10/12 01:27:21;;;;;;;5.82;1.83;;;13.80;99.90;;;;;;4966736;28;20563;-86
2023/10/12 01:29:53;;;;;;;7.88;1.98;;;13.80;99.90;;;;;;4956341;28;20254;-85
2023/10/12 01:32:24;;;;;;;7.53;1.95;;;13.80;99.90;;;;;;4972318;28;20043;-86
2023/10/12 01:34:53;;;;;;;10.43;2.20;;;13.80;99.90;;;;;;4956484;28;20054;-86
2023/10/12 01:39:57;;;;;;;8.13;2.35;;;13.80;99.90;;;;;;4972516;28;20854;-84
2023/10/12 01:42:49;;;;;;;7.82;2.22;;;13.80;99.90;;;;;;4972709;28;20465;-83
2023/10/12 01:45:19;;;;;;;;;;;13.80;99.90;;;;;;4956896;28;20086;-83
2023/10/12 01:47:54;;;;;;;7.97;2.42;;;13.70;99.90;;;;;;4956126;28;19926;-84
2023/10/12 01:50:20;;;;;;;9.18;2.17;;;13.70;99.90;;;;;;4956128;28;20043;-87
2023/10/12 01:52:47;;;;;;;6.95;2.08;;;13.70;99.90;;;;;;4956047;28;20126;-87
2023/10/12 01:55:17;;;;;;;7.93;2.10;;;13.70;99.90;;;;;;4972396;28;20051;-86
2023/10/12 01:57:54;;;;;;;7.20;2.50;;;13.70;99.90;;;;;;4949238;28;20043;-87
2023/10/12 02:00:25;;;;;;;7.95;2.30;;;13.70;99.90;;;;;;4965456;28;20038;-87
2023/10/12 02:03:01;;;;;;;9.47;2.37;;;13.70;99.90;;;;;;4948501;28;20049;-88
2023/10/12 02:05:34;;;;;;;9.73;2.38;;;13.70;99.90;;;;;;4955021;28;20057;-87
2023/10/12 02:08:05;;;;;;;8.40;2.58;;;13.70;99.90;;;;;;4956030;28;20372;-88
2023/10/12 02:10:41;;;;;;;6.83;2.10;;;13.70;99.90;;;;;;4972513;28;20456;-89
2023/10/12 02:13:10;;;;;;;9.18;2.50;;;13.60;99.90;;;;;;4971734;28;20478;-87
2023/10/12 02:15:37;;;;;;;7.72;2.20;;;13.60;99.90;;;;;;4953166;28;20038;-88
2023/10/12 02:18:10;;;;;;;11.05;2.70;;;13.70;99.90;;;;;;4968237;28;20630;-87
2023/10/12 02:20:42;;;;;;;6.85;2.30;;;13.60;99.90;;;;;;4953022;28;20125;-85
2023/10/12 02:23:12;;;;;;;8.77;2.88;;;13.70;99.90;;;;;;4967176;28;20669;-84
2023/10/12 02:25:50;;;;;;;9.90;2.63;;;13.60;99.90;;;;;;4970831;28;20104;-85
2023/10/12 02:28:22;;;;;;;11.63;2.42;;;13.70;99.90;;;;;;4971776;28;20043;-86
2023/10/12 02:30:54;;;;;;;9.68;2.28;;;13.70;99.90;;;;;;4955510;28;20101;-87
2023/10/12 02:33:34;;;;;;;6.97;2.33;;;13.70;99.90;;;;;;4955194;28;20243;-87
2023/10/12 02:36:01;;;;;;;9.95;2.67;;;13.60;99.90;;;;;;4955582;28;20045;-84
2023/10/12 02:38:28;;;;;;;10.50;2.50;;;13.60;99.90;;;;;;4971071;28;20039;-86
2023/10/12 02:40:58;;;;;;;9.07;2.60;;;13.60;99.90;;;;;;4939759;28;20097;-87
2023/10/12 02:43:27;;;;;;;10.05;2.70;;;13.70;99.90;;;;;;4972265;28;20402;-83
2023/10/12 02:45:54;;;;;;;8.63;2.55;;;13.60;99.90;;;;;;4954555;28;20069;-86
2023/10/12 02:48:29;;;;;;;8.90;2.50;;;13.60;99.90;;;;;;4955618;28;20054;-87
2023/10/12 02:50:58;;;;;;;8.25;2.53;;;13.60;99.90;;;;;;4955523;28;20434;-89
2023/10/12 02:53:30;;;;;;;12.95;2.90;;;13.60;99.90;;;;;;4955368;28;20039;-88
2023/10/12 02:56:00;;;;;;;9.93;3.00;;;13.60;99.90;;;;;;4962649;28;20066;-89
2023/10/12 02:58:29;;;;;;;7.72;2.60;;;13.60;99.90;;;;;;4961356;28;20055;-86
2023/10/12 03:00:55;;;;;;;8.60;2.65;;;13.60;99.90;;;;;;4955313;28;20133;-89
2023/10/12 03:03:36;;;;;;;8.63;2.40;;;13.50;99.90;;;;;;4972113;28;20121;-89
2023/10/12 03:06:07;;;;;;;8.97;2.30;;;13.60;99.90;;;;;;4952049;29;20050;-89
2023/10/12 03:08:46;;;;;;;4.73;2.53;;;13.50;99.90;;;;;;4944249;29;20291;-89
2023/10/12 03:11:19;;;;;;;7.10;2.40;;;13.50;99.90;;;;;;4972318;28;20047;-88
2023/10/12 03:14:00;;;;;;;9.32;3.45;;;13.50;99.90;;;;;;4971935;28;20043;-90
2023/10/12 03:16:41;;;;;;;10.43;2.92;;;13.50;99.90;;;;;;4971682;28;20045;-88
2023/10/12 03:21:52;;;;;;;10.15;2.90;;;13.50;99.90;;;;;;4972086;28;20517;-90
2023/10/12 03:24:21;;;;;;;7.45;2.78;;;13.50;99.90;;;;;;4952964;28;20042;-90
2023/10/12 03:27:33;;;;;;;10.75;3.13;;;13.50;99.90;;;;;;4972246;28;20051;-91
2023/10/12 03:29:33;;;;;;;11.20;3.42;;;13.40;99.90;;;;;;4971557;28;20130;-91
2023/10/12 03:32:00;;;;;;;8.75;2.72;;;13.40;99.90;;;;;;4971157;28;20126;-90
2023/10/12 03:37:04;;;;;;;8.85;3.03;;;13.40;99.90;;;;;;4972242;28;20038;-91
2023/10/12 03:39:58;;;;;;;11.60;2.90;;;13.30;99.90;;;;;;4946949;29;20075;-90
2023/10/12 03:44:54;;;;;;;11.55;3.33;;;13.30;99.90;;;;;;4972818;28;20058;-91
2023/10/12 03:55:09;;;;;;;8.20;2.83;;;13.30;99.90;;;;;;4976199;28;20504;-91
2023/10/12 03:57:44;;;;;;;12.82;3.08;;;13.30;99.90;;;;;;4958681;28;20042;-91
2023/10/12 04:02:45;;;;;;;7.65;3.00;;;13.30;99.90;;;;;;4974434;28;20035;-91
2023/10/12 04:18:42;;;;;;;7.03;2.42;;;13.20;99.90;;;;;;4966660;28;20082;-91
2023/10/12 04:21:15;;;;;;;8.48;3.15;;;13.20;99.90;;;;;;4974769;28;20125;-91
2023/10/12 04:24:27;;;;;;;8.63;2.70;;;13.30;99.90;;;;;;4955722;28;20058;-91
2023/10/12 04:28:58;;;;;;;8.52;3.10;;;13.30;99.90;;;;;;4974467;28;20134;-91
2023/10/12 04:32:15;;;;;;;6.80;2.60;;;13.30;99.90;;;;;;4957973;28;20046;-90
2023/10/12 04:34:16;;;;;;;8.48;3.10;;;13.30;99.90;;;;;;4982690;28;20039;-91
2023/10/12 04:36:44;;;;;;;7.90;2.88;;;13.30;99.90;;;;;;4951322;28;20039;-91
2023/10/12 04:39:24;;;;;;;10.55;3.13;;;13.30;99.90;;;;;;4974164;28;20043;-91
2023/10/12 04:44:43;;;;;;;14.63;3.50;;;13.30;99.90;;;;;;4964615;28;20043;-91
2023/10/12 04:47:07;;;;;;;7.85;2.95;;;13.30;99.90;;;;;;4966078;28;20436;-90
2023/10/12 04:54:49;;;;;;;9.73;3.10;;;13.30;99.90;;;;;;4958364;28;20043;-91
2023/10/12 04:57:15;;;;;;;6.60;3.00;;;13.20;99.90;;;;;;4945853;28;20121;-90
2023/10/12 05:05:14;;;;;;;10.93;3.60;;;13.30;99.90;;;;;;4974012;28;20158;-91
2023/10/12 05:09:53;;;;;;;10.32;3.53;;;13.20;99.90;;;;;;4969011;28;20045;-91
2023/10/12 05:12:23;;;;;;;9.13;3.40;;;13.30;99.90;;;;;;4958758;28;20046;-90
2023/10/12 05:14:55;;;;;;;10.35;3.20;;;13.20;99.90;;;;;;4955488;29;20050;-91
2023/10/12 05:17:24;;;;;;;7.40;3.00;;;13.30;99.90;;;;;;4969364;28;20542;-91
2023/10/12 05:19:52;;;;;;;9.18;2.90;;;13.20;99.90;;;;;;4953941;29;20050;-91
2023/10/12 05:22:19;;;;;;;7.97;2.97;;;13.30;99.90;;;;;;4945990;28;20039;-90
2023/10/12 05:24:46;;;;;;;7.50;2.67;;;13.30;99.90;;;;;;4941291;28;20051;-91
2023/10/12 05:27:23;;;;;;;8.82;2.72;;;13.20;99.90;;;;;;4956926;28;20042;-91
2023/10/12 05:29:52;;;;;;;10.73;3.33;;;13.20;99.90;;;;;;4971561;28;20043;-91
2023/10/12 05:32:36;;;;;;;7.07;3.00;;;13.20;99.90;;;;;;4973202;28;20562;-86
2023/10/12 05:35:05;;;;;;;9.38;2.70;;;13.20;99.90;;;;;;4960998;28;20039;-89
2023/10/12 05:37:48;;;;;;;10.00;2.72;;;13.20;99.90;;;;;;4955306;28;20035;-88
2023/10/12 05:40:16;;;;;;;10.88;2.97;;;13.20;99.90;;;;;;4953949;28;20097;-88
2023/10/12 05:42:46;;;;;;;5.97;2.50;;;13.20;99.90;;;;;;4963045;28;20049;-89
2023/10/12 05:45:22;;;;;;;10.32;2.70;;;13.20;99.90;;;;;;4959175;28;20069;-89
2023/10/12 05:47:57;;;;;;;8.50;2.75;;;13.20;99.90;;;;;;4967661;28;20082;-89
2023/10/12 05:50:23;;;;;;;7.93;2.65;;;13.20;99.90;;;;;;4986965;28;20042;-90
2023/10/12 05:52:59;;;;;;;9.23;2.35;;;13.20;99.90;;;;;;4952849;28;20093;-88
2023/10/12 05:55:26;;;;;;;10.32;2.88;;;13.20;99.90;;;;;;4949682;28;20070;-87
2023/10/12 05:57:55;;;;;;;6.60;2.50;;;13.20;99.90;;;;;;4955886;28;20073;-88
2023/10/12 06:00:35;;;;;;;9.48;2.60;;;13.20;99.90;;;;;;4970047;28;20660;-88
2023/10/12 06:03:05;;;;;;;10.25;2.60;;;13.10;99.90;;;;;;4969793;28;20035;-85
2023/10/12 06:05:32;;;;;;;8.40;2.85;;;13.10;99.90;;;;;;4972140;28;20066;-86
2023/10/12 06:08:00;;;;;;;9.85;3.05;;;13.10;99.90;;;;;;4951898;28;20047;-85
2023/10/12 06:10:31;;;;;;;7.63;2.60;;;13.10;99.90;;;;;;4971740;28;20035;-84
2023/10/12 06:12:57;;;;;;;9.38;2.70;;;13.10;99.90;;;;;;4956120;28;20119;-85
2023/10/12 06:15:28;;;;;;;10.75;2.67;;;13.10;99.90;;;;;;4955612;28;20129;-85
2023/10/12 06:17:55;;;;;;;11.10;2.80;;;13.10;99.90;;;;;;4956095;28;20531;-86
2023/10/12 06:20:40;;;;;;;10.57;2.45;;;13.10;99.90;;;;;;4972464;28;20104;-86
2023/10/12 06:23:09;;;;;;;11.63;3.00;;;13.10;99.90;;;;;;4953351;28;20050;-86
2023/10/12 06:25:37;;;;;;;9.38;3.05;;;13.00;99.90;;;;;;4972287;28;20144;-85
2023/10/12 06:28:07;;;;;;;7.45;2.45;;;13.00;99.90;;;;;;4972358;28;20034;-86
2023/10/12 06:30:34;;;;;;;8.20;2.58;;;13.00;99.90;;;;;;4956002;28;20054;-87
2023/10/12 06:33:02;;;;;;;7.43;2.78;;;13.00;99.90;;;;;;4947940;28;20039;-86
2023/10/12 06:35:33;;;;;;;8.70;2.47;;;13.00;99.90;;;;;;4972113;28;20041;-86
2023/10/12 06:38:15;;;;;;;8.15;2.63;;;12.90;99.90;;;;;;4972157;28;20109;-86
2023/10/12 06:40:48;;;;;;;6.65;2.38;;;12.90;99.90;;;;;;4971963;28;20051;-87
2023/10/12 06:45:51;;;;;;;4.97;2.40;;;12.80;99.90;;;;;;4971750;28;20394;-87
2023/10/12 06:48:23;;;;;;;8.02;2.45;;;12.80;99.90;;;;;;4955841;28;20047;-87
2023/10/12 06:51:01;;;;;;;6.68;2.17;;;12.80;99.90;;;;;;4971440;28;20053;-87
2023/10/12 06:53:31;;;;;;;8.07;2.20;;;12.80;99.90;;;;;;4971531;28;20042;-87
2023/10/12 06:55:59;;;;;;;7.50;2.78;;;12.70;99.90;;;;;;4953313;28;20037;-84
2023/10/12 06:58:36;;;;;;;7.45;2.63;;;12.70;99.90;;;;;;4971347;28;20081;-87
2023/10/12 07:01:26;;;;;;;8.98;2.67;;;12.70;99.90;;;;;;4952498;29;20459;-85
2023/10/12 07:03:53;;;;;;;10.43;2.60;;;12.70;99.90;;;;;;4965562;28;20159;-84
2023/10/12 07:06:18;;;;;;;9.20;2.75;;;12.70;99.90;;;;;;4952109;29;20552;-84
2023/10/12 07:08:46;;;;;;;9.15;2.53;;;12.80;99.90;;;;;;4953636;28;20077;-84
2023/10/12 07:11:14;;;;;;;8.13;2.58;;;12.80;99.90;;;;;;4951986;29;20049;-84
2023/10/12 07:13:45;;;;;;;9.40;2.50;;;12.90;99.90;;;;;;4952522;28;20047;-85
2023/10/12 07:16:15;;;;;;;10.32;2.58;;;12.90;99.90;;;;;;4972081;28;20035;-84
2023/10/12 07:18:44;;;;;;;11.07;3.40;;;12.90;99.90;;;;;;4965315;28;20482;-84
2023/10/12 07:21:22;;;;;;;8.18;2.60;;;13.00;99.90;;;;;;4947269;28;20509;-84
2023/10/12 07:23:57;;;;;;;7.97;3.50;;;13.00;99.90;;;;;;4971879;28;20502;-84
2023/10/12 07:26:29;;;;;;;10.25;2.90;;;13.10;99.90;;;;;;4974973;28;20110;-85
2023/10/12 07:28:56;;;;;;;6.72;2.97;;;13.10;99.90;;;;;;4943918;28;20129;-84
2023/10/12 07:36:34;;;;;;;5.45;2.63;;;13.10;99.90;;;;;;4975212;28;20043;-84
2023/10/12 07:41:57;;;;;;;9.05;3.05;;;13.30;99.90;;;;;;4975803;28;20495;-90
2023/10/12 07:44:54;;;;;;;9.82;3.10;;;13.30;99.90;;;;;;4955931;28;20050;-86
2023/10/12 07:47:19;;;;;;;8.27;2.80;;;13.40;99.90;;;;;;4986263;28;20065;-86
2023/10/12 07:49:57;;;;;;;7.90;2.75;;;13.50;99.90;;;;;;4958837;28;20043;-87
2023/10/12 07:52:38;;;;;;;8.80;2.88;;;13.50;99.90;;;;;;4958711;28;20108;-85
2023/10/12 07:55:17;;;;;;;12.88;2.75;;;13.60;99.90;;;;;;4974745;28;20061;-84
2023/10/12 07:57:44;;;;;;;6.85;2.53;;;13.60;99.90;;;;;;4973940;28;20035;-85
2023/10/12 08:06:07;;;;;;;7.55;2.58;;;13.80;99.90;;;;;;4972426;28;20047;-85
2023/10/12 08:21:23;;;;;;;9.32;2.50;;;13.80;99.90;;;;;;4975446;28;20042;-84
2023/10/12 08:23:50;;;;;;;9.02;2.53;;;13.80;99.90;;;;;;4949123;28;20043;-84
2023/10/12 08:26:35;;;;;;;7.65;2.28;;;13.80;99.90;;;;;;4954834;29;20043;-84
2023/10/12 08:29:17;;;;;;;10.05;2.45;;;13.80;99.90;;;;;;4973219;28;20540;-84
2023/10/12 08:31:46;;;;;;;10.77;2.55;;;13.80;99.90;;;;;;4974394;28;20047;-84
2023/10/12 08:39:38;;;;;;;7.63;2.35;;;13.90;99.90;;;;;;4957810;28;20495;-84
2023/10/12 08:44:50;;;;;;;9.77;2.42;;;14.00;99.90;;;;;;4985412;28;20047;-84
2023/10/12 08:50:08;;;;;;;;;;;14.00;99.90;;;;;;4962342;28;20094;-84
2023/10/12 08:52:38;;;;;;;6.75;1.80;;;14.00;99.90;;;;;;4958255;28;19995;-83
2023/10/12 08:55:12;;;;;;;6.43;2.10;;;14.00;99.90;;;;;;4957357;28;20038;-84
2023/10/12 08:57:49;;;;;;;6.65;2.05;;;14.00;99.90;;;;;;4957567;28;20047;-84
2023/10/12 09:00:24;;;;;;;9.50;1.98;;;14.00;99.90;;;;;;4957567;28;20078;-84
2023/10/12 09:05:51;;;;;;;6.65;1.77;;;14.10;99.90;;;;;;4951423;29;20047;-84
2023/10/12 09:11:17;;;;;;;7.03;1.77;;;14.10;99.90;;;;;;4965105;28;20497;-83
2023/10/12 09:13:36;;;;;;;12.18;2.40;;;14.10;99.90;;;;;;4968881;28;20059;-83
2023/10/12 09:16:10;;;;;;;10.40;2.28;;;14.10;99.90;;;;;;4946635;29;20058;-85
2023/10/12 09:26:46;;;;;;;9.38;2.47;;;14.20;99.90;;;;;;4945879;29;20047;-85
2023/10/12 09:29:20;;;;;;;6.82;2.15;;;14.30;99.90;;;;;;4939765;29;20058;-85
2023/10/12 09:36:55;;;;;;;5.72;1.65;;;14.40;99.90;;;;;;4945983;28;20043;-86
2023/10/12 09:39:27;;;;;;;6.65;1.90;;;14.50;99.90;;;;;;4938558;28;20047;-86
2023/10/12 09:41:59;;;;;;;6.00;2.00;;;14.70;99.90;;;;;;4955727;28;20097;-86
2023/10/12 09:44:26;;;;;;;;;;;14.70;99.90;;;;;;4972467;28;20078;-87
2023/10/12 09:46:56;;;;;;;9.00;1.90;;;14.70;99.90;;;;;;4952329;28;20331;-87
2023/10/12 09:49:27;;;;;;;8.10;2.05;;;14.80;99.90;;;;;;4959850;28;20673;-87
2023/10/12 09:52:04;;;;;;;8.15;1.90;;;14.80;99.90;;;;;;4956391;28;20451;-87
2023/10/12 09:54:47;;;;;;;7.80;1.75;;;14.80;99.90;;;;;;4955266;28;20035;-87
2023/10/12 09:57:19;;;;;;;5.20;1.60;;;14.80;99.90;;;;;;4972436;28;20074;-88
2023/10/12 09:59:52;;;;;;;;;;;14.80;99.90;;;;;;4972947;28;20053;-88
2023/10/12 10:02:30;;;;;;;12.50;2.40;;;14.80;99.90;;;;;;4957381;28;19929;-88
2023/10/12 10:05:26;;;;;;;8.07;1.85;;;14.90;99.90;;;;;;4960954;28;20403;-89
2023/10/12 10:08:04;;;;;;;8.35;1.80;;;14.90;99.90;;;;;;4956284;28;20509;-88
2023/10/12 10:10:31;;;;;;;10.98;2.15;;;14.90;99.90;;;;;;4956585;28;20093;-89
2023/10/12 10:13:12;;;;;;;7.30;2.10;;;15.00;99.90;;;;;;4947541;29;20098;-92
2023/10/12 10:15:56;;;;;;;8.07;1.95;;;15.00;99.90;;;;;;4938387;29;20050;-91
2023/10/12 10:18:25;;;;;;;6.35;1.80;;;15.00;99.90;;;;;;4954426;29;20043;-90
2023/10/12 10:21:05;;;;;;;6.07;1.80;;;15.00;99.90;;;;;;4938426;29;20039;-89
2023/10/12 10:23:37;;;;;;;6.70;1.80;;;14.90;99.90;;;;;;4938580;29;20411;-91
2023/10/12 10:26:17;;;;;;;5.03;1.95;;;15.00;99.90;;;;;;4938469;29;20086;-89
2023/10/12 10:29:29;;;;;;;11.15;2.35;;;14.90;99.90;;;;;;4955666;28;20125;-90
2023/10/12 10:31:41;;;;;;;8.13;2.10;;;15.00;99.90;;;;;;4962040;28;20054;-90
2023/10/12 10:34:10;;;;;;;11.40;2.25;;;15.00;99.90;;;;;;4961620;28;20061;-88
2023/10/12 10:36:36;;;;;;;8.32;1.83;;;15.00;99.90;;;;;;4944836;29;20043;-88
2023/10/12 10:44:16;;;;;;;9.02;1.95;;;15.00;99.90;;;;;;4961983;28;20059;-89
2023/10/12 10:46:47;;;;;;;11.20;2.35;;;15.00;99.90;;;;;;4937762;28;20579;-89
2023/10/12 10:49:16;;;;;;;6.07;2.10;;;15.00;99.90;;;;;;4955108;28;20051;-89
2023/10/12 10:51:48;;;;;;;6.57;1.80;;;15.00;99.90;;;;;;4955229;28;20118;-89
2023/10/12 10:54:21;;;;;;;9.45;2.03;;;14.90;99.90;;;;;;4951589;28;20039;-88
2023/10/12 10:56:51;;;;;;;11.30;1.95;;;15.00;99.90;;;;;;4936729;29;20486;-88
2023/10/12 10:59:20;;;;;;;5.68;1.55;;;14.90;99.90;;;;;;4942858;29;20039;-91
2023/10/12 11:01:49;;;;;;;7.40;2.28;;;14.90;99.90;;;;;;4949535;28;20049;-88
2023/10/12 11:05:00;;;;;;;7.95;1.92;;;14.90;99.90;;;;;;4955488;28;20046;-88
2023/10/12 11:07:17;;;;;;;7.03;2.00;;;14.90;99.90;;;;;;4964976;28;20575;-88
2023/10/12 11:12:20;;;;;;;5.88;2.30;;;14.90;99.90;;;;;;4965900;28;20089;-88
2023/10/12 11:20:49;;;;;;;5.53;1.83;;;15.00;99.90;;;;;;4950974;29;20613;-88
2023/10/12 11:23:16;;;;;;;9.70;2.63;;;15.00;99.90;;;;;;4959946;28;20051;-88
2023/10/12 11:25:42;;;;;;;4.47;1.55;;;15.00;99.90;;;;;;4955296;28;20043;-89
2023/10/12 11:28:26;;;;;;;7.50;1.80;;;15.00;99.90;;;;;;4961807;28;20043;-89
2023/10/12 11:30:59;;;;;;;8.07;1.90;;;15.10;99.90;;;;;;4937511;29;20395;-89
2023/10/12 11:33:29;;;;;;;8.55;2.10;;;15.00;99.90;;;;;;4942081;28;20069;-89
2023/10/12 11:36:00;;;;;;;6.05;1.73;;;15.00;99.90;;;;;;4968936;28;20034;-89
2023/10/12 11:38:27;;;;;;;7.28;1.98;;;15.00;99.90;;;;;;4955212;28;20039;-88
2023/10/12 11:40:53;;;;;;;7.90;2.15;;;15.10;99.90;;;;;;4946801;28;20043;-88
2023/10/12 11:43:21;;;;;;;7.60;2.40;;;15.10;99.90;;;;;;4965064;28;20281;-88
2023/10/12 11:46:03;;;;;;;10.75;2.00;;;15.10;99.90;;;;;;4971089;28;20047;-87
2023/10/12 11:48:30;;;;;;;10.07;2.08;;;15.20;99.90;;;;;;4935752;29;20063;-87
2023/10/12 11:50:57;;;;;;;8.25;2.03;;;15.20;99.90;;;;;;4963279;28;20047;-88
2023/10/12 11:53:24;;;;;;;7.45;1.95;;;15.20;99.90;;;;;;4971687;28;20027;-88
2023/10/12 11:56:04;;;;;;;7.75;1.88;;;15.20;99.90;;;;;;4952728;28;20597;-88
2023/10/12 11:58:30;;;;;;;6.78;1.98;;;15.20;99.90;;;;;;4953540;28;20039;-87
2023/10/12 12:01:00;;;;;;;8.85;2.20;;;15.20;99.90;;;;;;4953577;28;20137;-87
2023/10/12 12:03:26;;;;;;;8.27;1.98;;;15.20;99.90;;;;;;4949004;28;20453;-86
2023/10/12 12:05:52;;;;;;;8.05;2.17;;;15.30;99.90;;;;;;4947355;28;20046;-86
2023/10/12 12:08:18;;;;;;;7.32;2.10;;;15.30;99.90;;;;;;4959821;28;20411;-85
2023/10/12 12:10:46;;;;;;;11.90;1.90;;;15.30;99.90;;;;;;4956088;28;20053;-86
2023/10/12 12:13:16;;;;;;;11.00;2.97;;;15.30;99.90;;;;;;4924374;28;20031;-87
2023/10/12 12:15:43;;;;;;;11.23;2.85;;;15.20;99.90;;;;;;4974415;28;20042;-85
2023/10/12 12:18:21;;;;;;;7.85;2.75;;;15.20;99.90;;;;;;4955040;28;20137;-85
2023/10/12 12:20:56;;;;;;;7.35;1.75;;;15.20;99.90;;;;;;4947982;28;20053;-85
2023/10/12 12:23:33;;;;;;;9.02;2.13;;;15.10;99.90;;;;;;4974397;28;20494;-86
2023/10/12 12:26:07;;;;;;;5.75;2.85;;;15.10;99.90;;;;;;4974724;28;20057;-85
2023/10/12 12:28:33;;;;;;;8.80;2.28;;;15.10;99.90;;;;;;4974412;28;20051;-86
2023/10/12 12:31:04;;;;;;;7.40;1.83;;;15.00;99.90;;;;;;4959017;28;20050;-85
2023/10/12 12:33:30;;;;;;;8.23;2.20;;;15.00;99.90;;;;;;4959186;28;20039;-86
2023/10/12 12:36:07;;;;;;;9.73;1.90;;;15.00;99.90;;;;;;4975034;28;20282;-86
2023/10/12 12:41:00;;;;;;;10.55;2.60;;;15.00;99.90;;;;;;4973296;28;20498;-85
2023/10/12 12:43:26;;;;;;;6.55;2.20;;;15.00;99.90;;;;;;4974285;28;20129;-86
2023/10/12 12:45:52;;;;;;;11.35;1.95;;;15.00;99.90;;;;;;4951388;28;20038;-86
2023/10/12 12:48:21;;;;;;;6.18;1.92;;;15.00;99.90;;;;;;4957750;28;20499;-87
2023/10/12 12:50:49;;;;;;;4.47;1.60;;;15.00;99.90;;;;;;4954141;28;20132;-86
2023/10/12 12:53:19;;;;;;;5.88;2.10;;;15.00;99.90;;;;;;4954136;29;20179;-87
2023/10/12 12:55:46;;;;;;;8.15;2.03;;;14.90;99.90;;;;;;4953602;28;20039;-87
2023/10/12 12:58:17;;;;;;;10.65;2.28;;;15.00;99.90;;;;;;4973777;28;20093;-87
2023/10/12 13:00:46;;;;;;;6.97;2.05;;;15.00;99.90;;;;;;4973878;28;20371;-87
2023/10/12 13:03:16;;;;;;;7.00;1.70;;;14.90;99.90;;;;;;4957675;28;20390;-86
2023/10/12 13:05:42;;;;;;;9.85;1.88;;;15.00;99.90;;;;;;4959467;28;20035;-87
2023/10/12 13:08:11;;;;;;;9.55;2.10;;;14.90;99.90;;;;;;4973244;28;20049;-87
2023/10/12 13:10:39;;;;;;;7.20;2.15;;;14.90;99.90;;;;;;4965491;28;20043;-87
2023/10/12 13:13:06;;;;;;;6.80;1.83;;;14.90;99.90;;;;;;4965729;28;20034;-87
2023/10/12 13:15:32;;;;;;;9.60;1.95;;;14.90;99.90;;;;;;4957199;28;20041;-87
2023/10/12 13:17:59;;;;;;;6.35;2.00;;;14.90;99.90;;;;;;4964114;28;20693;-88
2023/10/12 13:20:30;;;;;;;9.32;2.50;;;14.90;99.90;;;;;;4972815;28;20047;-87
2023/10/12 13:22:56;;;;;;;11.82;2.75;;;14.90;99.90;;;;;;4956004;28;20039;-87
2023/10/12 13:25:25;;;;;;;6.10;1.98;;;14.80;99.90;;;;;;4936129;29;20078;-88
2023/10/12 13:27:52;;;;;;;5.90;1.80;;;14.80;99.90;;;;;;4952238;28;20035;-88
2023/10/12 13:30:18;;;;;;;7.45;2.05;;;14.80;99.90;;;;;;4957400;28;20038;-87
2023/10/12 13:32:52;;;;;;;7.28;1.80;;;14.70;99.90;;;;;;4972596;28;20057;-87
2023/10/12 13:35:18;;;;;;;10.02;1.73;;;14.70;99.90;;;;;;4956947;28;20043;-87
2023/10/12 13:37:51;;;;;;;5.88;1.90;;;14.70;99.90;;;;;;4969309;28;20124;-87
2023/10/12 13:40:17;;;;;;;8.13;1.63;;;14.70;99.90;;;;;;4957328;28;20110;-87
2023/10/12 13:42:43;;;;;;;9.10;2.28;;;14.70;99.90;;;;;;4957494;28;20109;-88
2023/10/12 13:45:13;;;;;;;7.40;2.00;;;14.70;99.90;;;;;;4973618;28;20086;-88
2023/10/12 13:47:42;;;;;;;10.73;2.33;;;14.70;99.90;;;;;;4951813;28;20586;-87
2023/10/12 13:50:12;;;;;;;6.03;1.73;;;14.60;99.90;;;;;;4956090;28;20607;-86
2023/10/12 13:52:38;;;;;;;7.18;2.20;;;14.60;99.90;;;;;;4941225;28;20046;-87
2023/10/12 13:55:12;;;;;;;6.45;2.33;;;14.60;99.90;;;;;;4957098;28;20065;-89
2023/10/12 13:57:55;;;;;;;7.15;2.38;;;14.60;99.90;;;;;;4966087;28;20310;-88
2023/10/12 14:00:25;;;;;;;6.78;2.10;;;14.60;99.90;;;;;;4956693;28;20067;-87
2023/10/12 14:02:58;;;;;;;10.73;2.40;;;14.60;99.90;;;;;;4972627;28;20047;-88
2023/10/12 14:05:27;;;;;;;11.25;3.00;;;14.60;99.90;;;;;;4940598;28;20085;-87
2023/10/12 14:08:00;;;;;;;8.15;2.72;;;14.60;99.90;;;;;;4972105;28;20050;-87
2023/10/12 14:10:27;;;;;;;7.00;2.80;;;14.60;99.90;;;;;;4953099;28;20118;-88
2023/10/12 14:12:56;;;;;;;10.25;2.92;;;14.60;99.90;;;;;;4972386;28;20069;-88
2023/10/12 14:15:28;;;;;;;10.60;2.20;;;14.60;99.90;;;;;;4956053;28;20538;-84
2023/10/12 14:17:59;;;;;;;;;;;14.60;99.90;;;;;;4956960;28;20113;-85
2023/10/12 14:20:26;;;;;;;9.15;2.42;;;14.50;99.90;;;;;;4956751;28;20041;-87
2023/10/12 14:22:57;;;;;;;7.53;1.98;;;14.50;99.90;;;;;;4972908;28;20050;-86
2023/10/12 14:25:30;;;;;;;10.07;1.92;;;14.50;99.90;;;;;;4953299;29;20054;-84
2023/10/12 14:27:59;;;;;;;7.35;2.10;;;14.40;99.90;;;;;;4945299;28;20038;-87
2023/10/12 14:30:29;;;;;;;9.18;2.47;;;14.40;99.90;;;;;;4953990;28;20049;-88
2023/10/12 14:33:02;;;;;;;4.18;2.00;;;14.40;99.90;;;;;;4956219;28;20039;-86
2023/10/12 14:35:29;;;;;;;10.75;2.55;;;14.40;99.90;;;;;;4972568;28;20043;-87
2023/10/12 14:37:57;;;;;;;8.07;2.22;;;14.30;99.90;;;;;;4956407;28;20824;-88
2023/10/12 14:40:31;;;;;;;8.15;2.20;;;14.30;99.90;;;;;;4972245;28;20062;-89
2023/10/12 14:43:10;;;;;;;9.32;2.28;;;14.30;99.90;;;;;;4972568;28;20081;-90
2023/10/12 14:45:57;;;;;;;9.20;2.30;;;14.20;99.90;;;;;;4956370;28;20074;-91
2023/10/12 14:48:24;;;;;;;9.18;2.20;;;14.20;99.90;;;;;;4972303;28;20055;-91
2023/10/12 14:51:13;;;;;;;5.90;2.20;;;14.20;99.90;;;;;;4954807;28;20043;-89
2023/10/12 14:53:45;;;;;;;9.02;2.67;;;14.20;99.90;;;;;;4955851;28;20506;-89
2023/10/12 14:56:14;;;;;;;5.68;2.10;;;14.10;99.90;;;;;;4959608;28;20034;-89
2023/10/12 14:58:40;;;;;;;7.80;2.63;;;14.10;99.90;;;;;;4957688;28;20368;-92
2023/10/12 15:01:17;;;;;;;8.18;2.30;;;14.10;99.90;;;;;;4956214;28;20070;-87
2023/10/12 15:03:45;;;;;;;9.07;3.05;;;14.10;99.90;;;;;;4956259;28;20074;-89
2023/10/12 15:06:12;;;;;;;5.40;2.00;;;14.00;99.90;;;;;;4940225;28;20046;-88
2023/10/12 15:08:39;;;;;;;9.02;2.92;;;14.00;99.90;;;;;;4971961;28;20077;-90
2023/10/12 15:11:07;;;;;;;10.18;2.67;;;13.90;99.90;;;;;;4939838;28;20039;-89
2023/10/12 15:13:37;;;;;;;6.95;2.42;;;13.80;99.90;;;;;;4972723;28;20046;-89
2023/10/12 15:16:12;;;;;;;10.27;2.50;;;13.80;99.90;;;;;;4957904;28;20026;-90
2023/10/12 15:18:41;;;;;;;6.53;2.60;;;13.80;99.90;;;;;;4954890;29;20376;-89
2023/10/12 15:21:11;;;;;;;6.82;3.13;;;13.70;99.90;;;;;;4952919;28;20043;-89
2023/10/12 15:23:37;;;;;;;8.90;3.80;;;13.70;99.90;;;;;;4965341;28;20391;-87